createdAt,value
2022-09-09T00:00:37.832Z,90.31
2022-09-09T00:01:37.823Z,90.11
2022-09-09T00:02:37.907Z,89.66
2022-09-09T00:03:37.837Z,89.16
2022-09-09T00:04:37.791Z,88.75
2022-09-09T00:05:37.763Z,88.51
2022-09-09T00:06:37.751Z,88.51
2022-09-09T00:07:37.739Z,88.10
2022-09-09T00:08:37.731Z,87.70
2022-09-09T00:09:37.732Z,87.70
2022-09-09T00:10:37.751Z,87.81
2022-09-09T00:11:37.699Z,88.01
2022-09-09T00:12:37.694Z,88.21
2022-09-09T00:13:37.671Z,88.21
2022-09-09T00:14:37.683Z,87.90
2022-09-09T00:15:37.694Z,87.90
2022-09-09T00:16:37.651Z,87.70
2022-09-09T00:17:37.631Z,87.81
2022-09-09T00:18:37.632Z,88.21
2022-09-09T00:19:37.615Z,89.32
2022-09-09T00:20:37.623Z,90.33
2022-09-09T00:21:37.586Z,91.34
2022-09-09T00:22:37.583Z,92.45
2022-09-09T00:23:37.564Z,92.65
2022-09-09T00:24:37.555Z,92.69
2022-09-09T00:25:37.555Z,93.00
2022-09-09T00:26:37.544Z,93.85
2022-09-09T00:27:37.516Z,93.95
2022-09-09T00:28:37.507Z,94.46
2022-09-09T00:29:37.507Z,94.96
2022-09-09T00:30:37.544Z,95.11
2022-09-09T00:31:37.483Z,95.92
2022-09-09T00:32:37.469Z,96.02
2022-09-09T00:33:37.455Z,96.33
2022-09-09T00:34:37.475Z,96.53
2022-09-09T00:35:37.428Z,96.63
2022-09-09T00:36:37.435Z,96.42
2022-09-09T00:37:37.403Z,96.12
2022-09-09T00:38:37.395Z,96.53
2022-09-09T00:39:37.438Z,96.83
2022-09-09T00:40:37.409Z,97.14
2022-09-09T00:41:37.364Z,97.14
2022-09-09T00:42:37.356Z,97.24
2022-09-09T00:43:37.335Z,97.54
2022-09-09T00:44:37.340Z,97.18
2022-09-09T00:45:37.351Z,97.28
2022-09-09T00:46:37.359Z,97.69
2022-09-09T00:47:37.308Z,97.38
2022-09-09T00:48:37.288Z,97.89
2022-09-09T00:49:37.284Z,97.38
2022-09-09T00:50:37.736Z,97.69
2022-09-09T00:51:37.260Z,97.69
2022-09-09T00:52:37.276Z,98.09
2022-09-09T00:53:37.228Z,98.09
2022-09-09T00:54:37.229Z,98.39
2022-09-09T00:55:37.208Z,98.70
2022-09-09T00:56:37.208Z,98.19
2022-09-09T00:57:37.182Z,98.09
2022-09-09T00:58:37.200Z,97.99
2022-09-09T00:59:37.164Z,98.39
2022-09-09T01:00:37.185Z,98.09
2022-09-09T01:01:37.208Z,98.19
2022-09-09T01:02:37.181Z,98.19
2022-09-09T01:03:37.120Z,98.09
2022-09-09T01:04:37.122Z,97.99
2022-09-09T01:05:37.112Z,97.69
2022-09-09T01:06:37.100Z,97.73
2022-09-09T01:07:37.072Z,97.73
2022-09-09T01:08:37.071Z,97.83
2022-09-09T01:09:37.048Z,97.63
2022-09-09T01:10:37.360Z,98.03
2022-09-09T01:11:37.042Z,98.44
2022-09-09T01:12:37.061Z,97.94
2022-09-09T01:13:36.999Z,98.03
2022-09-09T01:14:37.035Z,98.03
2022-09-09T01:15:36.991Z,98.03
2022-09-09T01:16:37.071Z,98.44
2022-09-09T01:17:36.968Z,98.54
2022-09-09T01:18:37.140Z,98.03
2022-09-09T01:19:36.933Z,98.03
2022-09-09T01:20:36.941Z,98.65
2022-09-09T01:21:36.932Z,98.54
2022-09-09T01:22:36.912Z,98.34
2022-09-09T01:23:36.900Z,98.24
2022-09-09T01:24:36.913Z,98.54
2022-09-09T01:25:36.872Z,98.54
2022-09-09T01:26:36.876Z,97.83
2022-09-09T01:27:36.854Z,97.53
2022-09-09T01:28:36.901Z,97.43
2022-09-09T01:29:36.852Z,97.53
2022-09-09T01:30:36.929Z,97.73
2022-09-09T01:31:36.816Z,98.03
2022-09-09T01:32:36.805Z,97.94
2022-09-09T01:33:36.784Z,98.03
2022-09-09T01:34:36.805Z,98.08
2022-09-09T01:35:36.765Z,98.18
2022-09-09T01:36:36.766Z,98.28
2022-09-09T01:37:36.736Z,98.18
2022-09-09T01:38:36.858Z,98.18
2022-09-09T01:39:36.805Z,97.98
2022-09-09T01:40:36.725Z,98.08
2022-09-09T01:41:36.700Z,98.39
2022-09-09T01:42:36.704Z,98.59
2022-09-09T01:43:36.678Z,98.99
2022-09-09T01:44:36.685Z,98.99
2022-09-09T01:45:36.675Z,98.59
2022-09-09T01:46:36.659Z,98.69
2022-09-09T01:47:36.645Z,98.69
2022-09-09T01:48:36.748Z,98.90
2022-09-09T01:49:36.632Z,98.69
2022-09-09T01:50:36.605Z,98.79
2022-09-09T01:51:36.597Z,98.79
2022-09-09T01:52:36.589Z,99.10
2022-09-09T01:53:36.567Z,98.90
2022-09-09T01:54:36.564Z,98.79
2022-09-09T01:55:36.557Z,98.79
2022-09-09T01:56:36.544Z,98.79
2022-09-09T01:57:36.518Z,99.10
2022-09-09T01:58:36.672Z,99.30
2022-09-09T01:59:36.497Z,99.50
2022-09-09T02:00:36.509Z,99.19
2022-09-09T02:01:36.524Z,99.30
2022-09-09T02:02:36.514Z,99.40
2022-09-09T02:03:36.458Z,99.50
2022-09-09T02:04:36.449Z,99.60
2022-09-09T02:05:36.446Z,99.60
2022-09-09T02:06:36.434Z,99.70
2022-09-09T02:07:36.425Z,99.80
2022-09-09T02:08:36.548Z,99.99
2022-09-09T02:09:36.405Z,99.99
2022-09-09T02:10:36.401Z,99.99
2022-09-09T02:11:36.369Z,99.99
2022-09-09T02:12:36.378Z,99.99
2022-09-09T02:13:36.353Z,99.99
2022-09-09T02:14:36.349Z,99.99
2022-09-09T02:15:36.322Z,99.99
2022-09-09T02:16:36.372Z,99.99
2022-09-09T02:17:36.304Z,99.99
2022-09-09T02:18:36.359Z,99.99
2022-09-09T02:19:36.302Z,99.99
2022-09-09T02:20:36.281Z,99.99
2022-09-09T02:21:36.281Z,99.99
2022-09-09T02:22:36.257Z,99.99
2022-09-09T02:23:36.230Z,99.99
2022-09-09T02:24:36.242Z,99.99
2022-09-09T02:25:36.221Z,99.99
2022-09-09T02:26:36.351Z,99.99
2022-09-09T02:27:36.190Z,99.99
2022-09-09T02:28:36.417Z,99.99
2022-09-09T02:29:36.163Z,99.99
2022-09-09T02:30:36.217Z,99.99
2022-09-09T02:31:36.137Z,99.99
2022-09-09T02:32:36.165Z,99.99
2022-09-09T02:33:36.121Z,99.99
2022-09-09T02:34:36.122Z,99.99
2022-09-09T02:35:36.119Z,99.99
2022-09-09T02:36:36.101Z,99.99
2022-09-09T02:37:36.092Z,99.99
2022-09-09T02:38:36.310Z,99.99
2022-09-09T02:39:36.081Z,99.99
2022-09-09T02:40:36.053Z,99.99
2022-09-09T02:41:36.035Z,99.99
2022-09-09T02:42:36.053Z,99.99
2022-09-09T02:43:36.021Z,99.99
2022-09-09T02:44:36.014Z,99.99
2022-09-09T02:45:36.023Z,99.99
2022-09-09T02:46:35.994Z,99.99
2022-09-09T02:47:35.973Z,99.99
2022-09-09T02:48:36.077Z,99.99
2022-09-09T02:49:35.945Z,99.99
2022-09-09T02:50:35.945Z,99.99
2022-09-09T02:51:35.921Z,99.99
2022-09-09T02:52:35.953Z,99.99
2022-09-09T02:53:35.903Z,99.99
2022-09-09T02:54:35.898Z,99.99
2022-09-09T02:55:35.882Z,99.99
2022-09-09T02:56:35.898Z,99.99
2022-09-09T02:57:35.866Z,99.99
2022-09-09T02:58:35.918Z,99.99
2022-09-09T02:59:35.887Z,99.99
2022-09-09T03:00:35.834Z,99.99
2022-09-09T03:01:35.933Z,99.99
2022-09-09T03:02:35.898Z,99.99
2022-09-09T03:03:35.797Z,99.99
2022-09-09T03:04:35.782Z,99.99
2022-09-09T03:05:35.782Z,99.99
2022-09-09T03:06:35.758Z,99.99
2022-09-09T03:07:35.783Z,99.99
2022-09-09T03:08:35.897Z,99.99
2022-09-09T03:09:35.863Z,99.99
2022-09-09T03:10:35.720Z,99.99
2022-09-09T03:11:35.711Z,99.99
2022-09-09T03:12:35.698Z,99.99
2022-09-09T03:13:35.777Z,99.99
2022-09-09T03:14:35.730Z,99.99
2022-09-09T03:15:35.746Z,99.99
2022-09-09T03:16:35.869Z,99.99
2022-09-09T03:17:35.746Z,99.99
2022-09-09T03:18:35.832Z,99.99
2022-09-09T03:19:36.018Z,99.99
2022-09-09T03:20:35.811Z,99.99
2022-09-09T03:21:35.750Z,99.99
2022-09-09T03:22:35.770Z,99.99
2022-09-09T03:23:35.782Z,99.99
2022-09-09T03:24:35.790Z,99.99
2022-09-09T03:25:35.674Z,99.99
2022-09-09T03:26:35.748Z,99.99
2022-09-09T03:27:35.653Z,99.99
2022-09-09T03:28:35.700Z,99.99
2022-09-09T03:29:35.821Z,99.99
2022-09-09T03:30:35.490Z,99.99
2022-09-09T03:31:35.536Z,99.99
2022-09-09T03:32:35.470Z,99.99
2022-09-09T03:33:35.502Z,99.99
2022-09-09T03:34:35.462Z,99.99
2022-09-09T03:35:35.459Z,99.99
2022-09-09T03:36:35.418Z,99.99
2022-09-09T03:37:35.430Z,99.99
2022-09-09T03:38:35.593Z,99.99
2022-09-09T03:39:35.865Z,99.99
2022-09-09T03:40:35.399Z,99.99
2022-09-09T03:41:35.413Z,99.99
2022-09-09T03:42:35.359Z,99.99
2022-09-09T03:43:35.364Z,99.99
2022-09-09T03:44:35.359Z,99.99
2022-09-09T03:45:35.446Z,99.99
2022-09-09T03:46:35.321Z,99.99
2022-09-09T03:47:35.311Z,99.99
2022-09-09T03:48:35.372Z,99.99
2022-09-09T03:49:35.292Z,99.99
2022-09-09T03:50:35.283Z,99.99
2022-09-09T03:51:35.276Z,99.99
2022-09-09T03:52:35.247Z,99.99
2022-09-09T03:53:35.243Z,99.99
2022-09-09T03:54:35.232Z,99.99
2022-09-09T03:55:35.245Z,99.99
2022-09-09T03:56:35.223Z,99.99
2022-09-09T03:57:35.199Z,99.99
2022-09-09T03:58:35.335Z,99.99
2022-09-09T03:59:35.175Z,99.99
2022-09-09T04:00:35.163Z,99.99
2022-09-09T04:01:35.228Z,99.99
2022-09-09T04:02:35.235Z,99.99
2022-09-09T04:03:35.123Z,99.99
2022-09-09T04:04:35.116Z,99.99
2022-09-09T04:05:35.115Z,99.99
2022-09-09T04:06:35.106Z,99.91
2022-09-09T04:07:35.083Z,99.86
2022-09-09T04:08:35.354Z,99.99
2022-09-09T04:09:35.068Z,99.99
2022-09-09T04:10:35.048Z,99.80
2022-09-09T04:11:35.067Z,99.55
2022-09-09T04:12:35.028Z,99.76
2022-09-09T04:13:35.124Z,99.46
2022-09-09T04:14:35.056Z,99.35
2022-09-09T04:15:35.130Z,99.46
2022-09-09T04:16:35.218Z,99.15
2022-09-09T04:17:35.086Z,99.05
2022-09-09T04:18:35.219Z,98.95
2022-09-09T04:19:35.210Z,99.35
2022-09-09T04:20:34.938Z,99.55
2022-09-09T04:21:34.945Z,99.46
2022-09-09T04:22:34.914Z,99.15
2022-09-09T04:23:34.906Z,99.46
2022-09-09T04:24:34.890Z,99.55
2022-09-09T04:25:34.885Z,99.46
2022-09-09T04:26:35.011Z,99.46
2022-09-09T04:27:34.859Z,99.25
2022-09-09T04:28:34.943Z,99.15
2022-09-09T04:29:34.859Z,99.35
2022-09-09T04:30:34.832Z,99.15
2022-09-09T04:31:34.875Z,99.35
2022-09-09T04:32:34.798Z,99.15
2022-09-09T04:33:39.462Z,99.05
2022-09-09T04:34:35.787Z,98.95
2022-09-09T04:35:34.771Z,98.95
2022-09-09T04:36:34.775Z,99.15
2022-09-09T04:37:34.766Z,99.15
2022-09-09T04:38:34.730Z,99.15
2022-09-09T04:39:34.768Z,98.74
2022-09-09T04:40:34.710Z,98.65
2022-09-09T04:41:34.718Z,98.74
2022-09-09T04:42:34.691Z,98.85
2022-09-09T04:43:34.699Z,98.95
2022-09-09T04:44:34.660Z,98.74
2022-09-09T04:45:34.757Z,98.54
2022-09-09T04:46:34.678Z,98.65
2022-09-09T04:47:34.659Z,98.85
2022-09-09T04:48:34.666Z,98.65
2022-09-09T04:49:34.618Z,98.65
2022-09-09T04:50:34.602Z,98.34
2022-09-09T04:51:34.603Z,98.39
2022-09-09T04:52:34.602Z,98.50
2022-09-09T04:53:34.570Z,98.60
2022-09-09T04:54:34.550Z,98.60
2022-09-09T04:55:34.551Z,98.60
2022-09-09T04:56:34.523Z,98.09
2022-09-09T04:57:34.542Z,98.19
2022-09-09T04:58:34.588Z,98.09
2022-09-09T04:59:34.511Z,98.39
2022-09-09T05:00:34.525Z,98.19
2022-09-09T05:01:34.483Z,97.99
2022-09-09T05:02:34.545Z,98.19
2022-09-09T05:03:34.463Z,97.99
2022-09-09T05:04:34.435Z,97.99
2022-09-09T05:05:34.444Z,98.09
2022-09-09T05:06:41.727Z,97.99
2022-09-09T05:07:34.418Z,98.19
2022-09-09T05:08:34.450Z,98.29
2022-09-09T05:09:34.387Z,98.19
2022-09-09T05:10:34.406Z,98.29
2022-09-09T05:11:34.367Z,98.29
2022-09-09T05:12:34.379Z,98.50
2022-09-09T05:13:37.326Z,98.19
2022-09-09T05:14:35.327Z,97.89
2022-09-09T05:15:34.375Z,97.89
2022-09-09T05:16:34.586Z,97.89
2022-09-09T05:17:34.408Z,97.58
2022-09-09T05:18:34.413Z,97.38
2022-09-09T05:19:34.459Z,97.28
2022-09-09T05:20:34.408Z,97.38
2022-09-09T05:21:34.411Z,97.38
2022-09-09T05:22:34.440Z,97.18
2022-09-09T05:23:34.440Z,97.28
2022-09-09T05:24:34.435Z,97.69
2022-09-09T05:25:34.431Z,97.58
2022-09-09T05:26:34.587Z,97.28
2022-09-09T05:27:34.492Z,96.78
2022-09-09T05:28:41.232Z,96.57
2022-09-09T05:29:34.165Z,96.53
2022-09-09T05:30:34.131Z,96.22
2022-09-09T05:31:34.236Z,96.22
2022-09-09T05:32:34.184Z,96.42
2022-09-09T05:33:34.126Z,96.73
2022-09-09T05:34:34.092Z,97.14
2022-09-09T05:35:34.124Z,96.73
2022-09-09T05:36:34.072Z,96.53
2022-09-09T05:37:34.171Z,96.02
2022-09-09T05:38:34.050Z,96.02
2022-09-09T05:39:34.094Z,96.42
2022-09-09T05:40:34.023Z,96.73
2022-09-09T05:41:34.026Z,96.53
2022-09-09T05:42:34.012Z,96.63
2022-09-09T05:43:34.036Z,96.73
2022-09-09T05:44:33.984Z,96.63
2022-09-09T05:45:33.984Z,96.83
2022-09-09T05:46:34.010Z,96.73
2022-09-09T05:47:33.966Z,96.73
2022-09-09T05:48:34.321Z,96.73
2022-09-09T05:49:33.955Z,96.83
2022-09-09T05:50:33.927Z,96.73
2022-09-09T05:51:33.916Z,97.24
2022-09-09T05:52:33.899Z,97.19
2022-09-09T05:53:33.895Z,96.89
2022-09-09T05:54:33.904Z,96.78
2022-09-09T05:55:33.877Z,96.58
2022-09-09T05:56:33.937Z,96.58
2022-09-09T05:57:33.844Z,96.48
2022-09-09T05:58:33.837Z,96.69
2022-09-09T05:59:33.836Z,96.58
2022-09-09T06:00:33.816Z,96.69
2022-09-09T06:01:33.964Z,96.69
2022-09-09T06:02:33.889Z,96.89
2022-09-09T06:03:33.788Z,96.58
2022-09-09T06:04:33.756Z,96.48
2022-09-09T06:05:33.895Z,96.38
2022-09-09T06:06:33.736Z,96.28
2022-09-09T06:07:33.736Z,96.38
2022-09-09T06:08:33.730Z,96.18
2022-09-09T06:09:33.708Z,96.18
2022-09-09T06:10:33.696Z,96.48
2022-09-09T06:11:33.708Z,96.28
2022-09-09T06:12:33.668Z,96.28
2022-09-09T06:13:33.679Z,96.28
2022-09-09T06:14:33.648Z,96.18
2022-09-09T06:15:33.650Z,96.48
2022-09-09T06:16:33.815Z,96.28
2022-09-09T06:17:33.624Z,96.28
2022-09-09T06:18:33.662Z,96.38
2022-09-09T06:19:33.612Z,96.28
2022-09-09T06:20:33.588Z,96.58
2022-09-09T06:21:33.629Z,96.48
2022-09-09T06:22:33.548Z,96.78
2022-09-09T06:23:33.560Z,96.84
2022-09-09T06:24:33.532Z,96.64
2022-09-09T06:25:33.540Z,96.84
2022-09-09T06:26:33.528Z,96.74
2022-09-09T06:27:33.509Z,96.84
2022-09-09T06:28:33.489Z,96.64
2022-09-09T06:29:33.505Z,96.44
2022-09-09T06:30:33.472Z,96.54
2022-09-09T06:31:33.514Z,96.54
2022-09-09T06:32:33.446Z,96.64
2022-09-09T06:33:33.441Z,96.94
2022-09-09T06:34:33.420Z,96.74
2022-09-09T06:35:33.413Z,96.44
2022-09-09T06:36:33.413Z,96.23
2022-09-09T06:37:33.400Z,96.23
2022-09-09T06:38:33.476Z,95.93
2022-09-09T06:39:33.405Z,96.13
2022-09-09T06:40:33.360Z,96.13
2022-09-09T06:41:33.352Z,96.44
2022-09-09T06:42:33.341Z,96.23
2022-09-09T06:43:33.344Z,96.23
2022-09-09T06:44:35.244Z,95.93
2022-09-09T06:45:33.305Z,96.03
2022-09-09T06:46:33.349Z,96.23
2022-09-09T06:47:33.305Z,95.78
2022-09-09T06:48:33.363Z,95.89
2022-09-09T06:49:33.285Z,96.09
2022-09-09T06:50:33.244Z,95.68
2022-09-09T06:51:33.244Z,95.98
2022-09-09T06:52:33.245Z,95.68
2022-09-09T06:53:33.225Z,95.58
2022-09-09T06:54:33.197Z,95.58
2022-09-09T06:55:33.196Z,95.58
2022-09-09T06:56:33.182Z,95.38
2022-09-09T06:57:37.372Z,95.48
2022-09-09T06:58:33.226Z,95.07
2022-09-09T06:59:33.153Z,95.28
2022-09-09T07:00:33.173Z,95.07
2022-09-09T07:01:33.155Z,94.87
2022-09-09T07:02:33.117Z,94.37
2022-09-09T07:03:33.118Z,94.37
2022-09-09T07:04:33.093Z,94.67
2022-09-09T07:05:33.097Z,95.07
2022-09-09T07:06:33.065Z,94.47
2022-09-09T07:07:33.057Z,94.37
2022-09-09T07:08:33.053Z,94.47
2022-09-09T07:09:33.081Z,94.12
2022-09-09T07:10:33.038Z,94.32
2022-09-09T07:11:33.013Z,94.23
2022-09-09T07:12:32.997Z,93.92
2022-09-09T07:13:32.993Z,93.62
2022-09-09T07:14:32.986Z,93.52
2022-09-09T07:15:32.958Z,93.52
2022-09-09T07:16:32.991Z,93.21
2022-09-09T07:17:32.966Z,93.52
2022-09-09T07:18:32.986Z,93.52
2022-09-09T07:19:32.937Z,93.82
2022-09-09T07:20:32.917Z,93.32
2022-09-09T07:21:32.915Z,92.97
2022-09-09T07:22:32.890Z,92.97
2022-09-09T07:23:36.125Z,92.86
2022-09-09T07:24:32.869Z,92.77
2022-09-09T07:25:32.886Z,93.07
2022-09-09T07:26:32.858Z,93.07
2022-09-09T07:27:32.830Z,92.77
2022-09-09T07:28:32.873Z,92.16
2022-09-09T07:29:32.809Z,91.11
2022-09-09T07:30:32.809Z,91.21
2022-09-09T07:31:32.814Z,91.82
2022-09-09T07:32:32.781Z,91.82
2022-09-09T07:33:32.800Z,90.70
2022-09-09T07:34:32.767Z,90.50
2022-09-09T07:35:32.750Z,91.27
2022-09-09T07:36:33.733Z,90.86
2022-09-09T07:37:32.781Z,90.86
2022-09-09T07:38:32.795Z,90.66
2022-09-09T07:39:32.733Z,90.66
2022-09-09T07:40:32.689Z,90.22
2022-09-09T07:41:32.682Z,90.42
2022-09-09T07:42:32.674Z,89.31
2022-09-09T07:43:32.649Z,89.01
2022-09-09T07:44:32.649Z,89.31
2022-09-09T07:45:32.642Z,88.96
2022-09-09T07:46:32.671Z,88.56
2022-09-09T07:47:32.621Z,88.46
2022-09-09T07:48:32.640Z,88.26
2022-09-09T07:49:33.072Z,88.26
2022-09-09T07:50:32.594Z,88.36
2022-09-09T07:51:32.561Z,89.26
2022-09-09T07:52:32.561Z,87.85
2022-09-09T07:53:32.579Z,88.46
2022-09-09T07:54:32.967Z,87.85
2022-09-09T07:55:32.513Z,87.35
2022-09-09T07:56:33.688Z,86.75
2022-09-09T07:57:32.502Z,85.94
2022-09-09T07:58:37.714Z,86.24
2022-09-09T07:59:33.487Z,86.95
2022-09-09T08:00:32.478Z,86.44
2022-09-09T08:01:32.509Z,86.85
2022-09-09T08:02:32.454Z,87.15
2022-09-09T08:03:32.426Z,86.65
2022-09-09T08:04:32.426Z,86.95
2022-09-09T08:05:32.415Z,87.55
2022-09-09T08:06:32.405Z,88.36
2022-09-09T08:07:32.398Z,87.15
2022-09-09T08:08:32.387Z,86.44
2022-09-09T08:09:32.376Z,86.24
2022-09-09T08:10:32.389Z,86.41
2022-09-09T08:11:36.679Z,86.00
2022-09-09T08:12:34.897Z,86.61
2022-09-09T08:13:32.378Z,86.41
2022-09-09T08:14:32.326Z,85.70
2022-09-09T08:15:32.298Z,84.59
2022-09-09T08:16:32.287Z,84.45
2022-09-09T08:17:32.330Z,84.29
2022-09-09T08:18:32.266Z,84.49
2022-09-09T08:19:32.258Z,85.10
2022-09-09T08:20:32.270Z,85.20
2022-09-09T08:21:32.230Z,85.80
2022-09-09T08:22:32.238Z,85.60
2022-09-09T08:23:32.210Z,85.20
2022-09-09T08:24:32.204Z,85.80
2022-09-09T08:25:32.178Z,86.00
2022-09-09T08:26:32.210Z,85.50
2022-09-09T08:27:32.178Z,85.40
2022-09-09T08:28:32.157Z,85.70
2022-09-09T08:29:32.139Z,85.50
2022-09-09T08:30:32.136Z,84.23
2022-09-09T08:31:32.123Z,84.53
2022-09-09T08:32:32.290Z,84.63
2022-09-09T08:33:32.109Z,85.08
2022-09-09T08:34:32.098Z,85.08
2022-09-09T08:35:32.062Z,85.58
2022-09-09T08:36:32.082Z,85.58
2022-09-09T08:37:32.063Z,85.78
2022-09-09T08:38:32.050Z,86.08
2022-09-09T08:39:32.050Z,86.04
2022-09-09T08:40:32.022Z,86.24
2022-09-09T08:41:32.012Z,84.94
2022-09-09T08:42:32.010Z,86.85
2022-09-09T08:43:32.173Z,84.49
2022-09-09T08:44:31.982Z,84.80
2022-09-09T08:45:31.970Z,84.15
2022-09-09T08:46:32.776Z,84.55
2022-09-09T08:47:34.053Z,83.54
2022-09-09T08:48:31.944Z,83.91
2022-09-09T08:49:31.914Z,83.31
2022-09-09T08:50:31.915Z,83.31
2022-09-09T08:51:31.895Z,83.31
2022-09-09T08:52:31.903Z,83.06
2022-09-09T08:53:31.896Z,82.26
2022-09-09T08:54:50.988Z,80.75
2022-09-09T08:55:32.843Z,81.46
2022-09-09T08:56:31.851Z,81.76
2022-09-09T08:57:31.824Z,80.45
2022-09-09T08:58:31.835Z,81.15
2022-09-09T08:59:31.814Z,80.85
2022-09-09T09:00:31.807Z,80.29
2022-09-09T09:01:31.871Z,80.29
2022-09-09T09:02:31.795Z,81.39
2022-09-09T09:03:31.774Z,80.19
2022-09-09T09:04:31.820Z,80.49
2022-09-09T09:05:31.735Z,79.79
2022-09-09T09:06:31.749Z,79.38
2022-09-09T09:07:33.019Z,79.58
2022-09-09T09:08:31.727Z,80.79
2022-09-09T09:09:31.695Z,80.75
2022-09-09T09:10:41.780Z,81.26
2022-09-09T09:11:32.675Z,79.81
2022-09-09T09:12:31.663Z,79.35
2022-09-09T09:13:31.667Z,79.94
2022-09-09T09:14:31.758Z,80.05
2022-09-09T09:15:32.704Z,80.55
2022-09-09T09:16:31.627Z,79.74
2022-09-09T09:17:31.608Z,79.41
2022-09-09T09:18:31.619Z,80.11
2022-09-09T09:19:31.587Z,78.90
2022-09-09T09:20:31.578Z,79.10
2022-09-09T09:21:31.560Z,79.21
2022-09-09T09:22:31.559Z,79.21
2022-09-09T09:23:31.561Z,79.21
2022-09-09T09:24:31.528Z,78.60
2022-09-09T09:25:31.512Z,79.21
2022-09-09T09:26:31.576Z,78.30
2022-09-09T09:27:31.499Z,78.10
2022-09-09T09:28:31.511Z,79.21
2022-09-09T09:29:31.480Z,78.20
2022-09-09T09:30:31.524Z,77.80
2022-09-09T09:31:31.499Z,78.20
2022-09-09T09:32:31.459Z,77.29
2022-09-09T09:33:31.423Z,78.20
2022-09-09T09:34:31.443Z,78.10
2022-09-09T09:35:31.402Z,78.97
2022-09-09T09:36:31.403Z,78.97
2022-09-09T09:37:31.602Z,79.77
2022-09-09T09:40:32.375Z,76.68
2022-09-09T09:41:31.332Z,76.75
2022-09-09T09:42:31.323Z,75.60
2022-09-09T09:43:31.311Z,76.28
2022-09-09T09:44:31.325Z,74.73
2022-09-09T09:45:31.291Z,73.39
2022-09-09T09:46:31.345Z,72.89
2022-09-09T09:47:31.275Z,73.26
2022-09-09T09:48:31.296Z,71.83
2022-09-09T09:49:31.255Z,71.59
2022-09-09T09:50:31.256Z,70.83
2022-09-09T09:51:31.235Z,70.53
2022-09-09T09:52:31.226Z,71.03
2022-09-09T09:53:31.224Z,70.73
2022-09-09T09:54:31.203Z,70.03
2022-09-09T09:55:31.183Z,70.96
2022-09-09T09:56:31.226Z,71.36
2022-09-09T09:57:31.169Z,70.59
2022-09-09T09:58:31.168Z,71.39
2022-09-09T09:59:40.002Z,71.06
2022-09-09T10:00:32.135Z,70.39
2022-09-09T10:01:31.906Z,70.62
2022-09-09T10:02:31.108Z,70.53
2022-09-09T10:03:31.096Z,70.62
2022-09-09T10:04:31.142Z,71.16
2022-09-09T10:05:35.810Z,71.50
2022-09-09T10:06:32.135Z,72.43
2022-09-09T10:07:31.041Z,72.43
2022-09-09T10:08:31.049Z,74.10
2022-09-09T10:09:31.049Z,72.06
2022-09-09T10:10:31.028Z,71.46
2022-09-09T10:11:31.007Z,70.96
2022-09-09T10:12:31.035Z,72.47
2022-09-09T10:13:30.991Z,72.47
2022-09-09T10:14:30.999Z,72.16
2022-09-09T10:15:30.993Z,72.16
2022-09-09T10:16:30.960Z,71.56
2022-09-09T10:17:30.972Z,71.73
2022-09-09T10:18:30.952Z,70.96
2022-09-09T10:19:30.912Z,71.66
2022-09-09T10:20:30.920Z,71.06
2022-09-09T10:21:33.253Z,72.06
2022-09-09T10:22:30.895Z,72.00
2022-09-09T10:23:30.909Z,72.90
2022-09-09T10:24:30.872Z,73.50
2022-09-09T10:25:30.860Z,72.06
2022-09-09T10:26:30.856Z,71.56
2022-09-09T10:27:30.825Z,71.96
2022-09-09T10:28:30.824Z,71.16
2022-09-09T10:29:30.815Z,71.33
2022-09-09T10:30:30.812Z,70.53
2022-09-09T10:31:30.819Z,69.82
2022-09-09T10:32:30.784Z,69.76
2022-09-09T10:33:32.655Z,68.36
2022-09-09T10:34:31.615Z,68.16
2022-09-09T10:35:30.752Z,68.46
2022-09-09T10:36:30.739Z,68.16
2022-09-09T10:37:30.704Z,67.86
2022-09-09T10:38:30.705Z,67.72
2022-09-09T10:39:30.713Z,66.86
2022-09-09T10:40:30.697Z,67.86
2022-09-09T10:41:30.669Z,68.86
2022-09-09T10:42:30.677Z,68.13
2022-09-09T10:43:30.644Z,68.32
2022-09-09T10:44:30.644Z,67.29
2022-09-09T10:45:30.649Z,68.09
2022-09-09T10:46:30.715Z,67.32
2022-09-09T10:47:30.596Z,69.46
2022-09-09T10:48:30.597Z,68.73
2022-09-09T10:49:30.642Z,67.82
2022-09-09T10:50:50.373Z,67.52
2022-09-09T10:51:31.569Z,67.02
2022-09-09T10:52:30.584Z,68.93
2022-09-09T10:53:30.536Z,67.93
2022-09-09T10:54:30.531Z,67.40
2022-09-09T10:55:30.508Z,66.56
2022-09-09T10:56:30.528Z,66.76
2022-09-09T10:57:30.501Z,67.83
2022-09-09T10:58:30.490Z,66.83
2022-09-09T10:59:30.470Z,66.89
2022-09-09T11:00:30.469Z,64.97
2022-09-09T11:01:30.511Z,65.17
2022-09-09T11:02:30.453Z,64.60
2022-09-09T11:03:30.430Z,66.93
2022-09-09T11:04:30.441Z,65.13
2022-09-09T11:05:30.413Z,65.63
2022-09-09T11:06:30.450Z,65.83
2022-09-09T11:07:30.385Z,64.86
2022-09-09T11:08:30.393Z,66.06
2022-09-09T11:09:30.375Z,65.99
2022-09-09T11:10:30.361Z,66.16
2022-09-09T11:11:30.340Z,65.43
2022-09-09T11:12:30.333Z,66.30
2022-09-09T11:13:30.313Z,64.07
2022-09-09T11:14:34.053Z,63.94
2022-09-09T11:15:31.298Z,62.04
2022-09-09T11:16:30.340Z,62.21
2022-09-09T11:17:30.273Z,60.65
2022-09-09T11:18:30.385Z,60.85
2022-09-09T11:19:30.277Z,60.68
2022-09-09T11:20:30.245Z,62.01
2022-09-09T11:21:37.297Z,62.43
2022-09-09T11:22:30.229Z,63.36
2022-09-09T11:23:30.229Z,63.76
2022-09-09T11:24:30.209Z,63.96
2022-09-09T11:25:30.209Z,63.89
2022-09-09T11:26:30.197Z,65.79
2022-09-09T11:27:30.189Z,65.69
2022-09-09T11:28:30.202Z,64.49
2022-09-09T11:29:30.161Z,65.69
2022-09-09T11:30:54.971Z,65.59
2022-09-09T11:31:31.164Z,65.99
2022-09-09T11:32:30.129Z,65.36
2022-09-09T11:33:30.113Z,67.23
2022-09-09T11:34:30.132Z,65.93
2022-09-09T11:35:30.133Z,65.50
2022-09-09T11:36:37.243Z,62.20
2022-09-09T11:37:30.069Z,61.41
2022-09-09T11:38:30.106Z,61.63
2022-09-09T11:39:30.074Z,61.83
2022-09-09T11:40:30.030Z,62.37
2022-09-09T11:41:30.050Z,64.06
2022-09-09T11:42:30.021Z,63.33
2022-09-09T11:43:30.012Z,61.87
2022-09-09T11:44:30.041Z,63.06
2022-09-09T11:45:29.982Z,62.99
2022-09-09T11:46:30.011Z,64.03
2022-09-09T11:47:29.981Z,63.72
2022-09-09T11:48:29.942Z,64.65
2022-09-09T11:49:29.942Z,64.72
2022-09-09T11:50:29.926Z,64.75
2022-09-09T11:51:29.922Z,65.55
2022-09-09T11:52:29.910Z,65.95
2022-09-09T11:53:29.895Z,66.36
2022-09-09T11:54:29.889Z,66.42
2022-09-09T11:55:29.876Z,64.62
2022-09-09T11:56:29.849Z,62.92
2022-09-09T11:57:29.853Z,64.03
2022-09-09T11:58:29.847Z,62.70
2022-09-09T11:59:29.829Z,62.49
2022-09-09T12:00:29.807Z,61.63
2022-09-09T12:01:29.821Z,61.83
2022-09-09T12:02:29.826Z,60.68
2022-09-09T12:03:29.801Z,58.85
2022-09-09T12:04:29.985Z,58.75
2022-09-09T12:05:29.782Z,58.15
2022-09-09T12:06:29.755Z,57.98
2022-09-09T12:07:29.758Z,58.38
2022-09-09T12:08:29.777Z,59.31
2022-09-09T12:09:29.725Z,59.04
2022-09-09T12:10:29.707Z,59.56
2022-09-09T12:11:29.696Z,60.53
2022-09-09T12:12:29.694Z,61.00
2022-09-09T12:13:29.698Z,60.48
2022-09-09T12:14:29.654Z,60.35
2022-09-09T12:15:29.658Z,59.32
2022-09-09T12:16:29.676Z,59.89
2022-09-09T12:17:29.627Z,57.23
2022-09-09T12:18:29.688Z,57.73
2022-09-09T12:19:29.607Z,57.56
2022-09-09T12:20:29.598Z,58.15
2022-09-09T12:21:29.590Z,58.51
2022-09-09T12:22:29.604Z,58.54
2022-09-09T12:23:30.606Z,59.53
2022-09-09T12:24:29.554Z,59.17
2022-09-09T12:25:29.550Z,59.56
2022-09-09T12:26:29.526Z,60.36
2022-09-09T12:27:29.845Z,61.16
2022-09-09T12:28:29.531Z,61.66
2022-09-09T12:29:30.452Z,61.16
2022-09-09T12:30:29.519Z,59.83
2022-09-09T12:31:29.495Z,61.10
2022-09-09T12:32:29.493Z,60.68
2022-09-09T12:33:29.510Z,58.45
2022-09-09T12:34:29.543Z,58.03
2022-09-09T12:35:29.574Z,58.03
2022-09-09T12:36:29.612Z,58.10
2022-09-09T12:37:29.624Z,56.90
2022-09-09T12:38:29.498Z,57.70
2022-09-09T12:39:29.611Z,57.03
2022-09-09T12:40:29.422Z,58.12
2022-09-09T12:41:29.375Z,57.13
2022-09-09T12:42:29.356Z,58.53
2022-09-09T12:43:29.354Z,57.93
2022-09-09T12:44:29.357Z,57.93
2022-09-09T12:45:29.335Z,59.39
2022-09-09T12:46:29.349Z,58.40
2022-09-09T12:47:30.369Z,57.47
2022-09-09T12:48:29.315Z,57.87
2022-09-09T12:49:29.286Z,58.37
2022-09-09T12:50:29.278Z,57.07
2022-09-09T12:51:29.267Z,58.04
2022-09-09T12:52:29.239Z,57.24
2022-09-09T12:53:29.236Z,55.65
2022-09-09T12:54:29.248Z,56.75